Orbital elements of COSMOS 2251 DEB
| Launched | 15 June 1993 |
| Flight ended | – |
| Launch site | Plesetsk Missile and Space Complex, Russia |
| Owner | Commonwealth of Independent States (former USSR) |
| NORAD ID | 36559 |
| Date fetched |
Epoch osculation |
Inc. [°] |
Ecc. | RA asc node [hr] |
Arg Peri. [°] |
Mean anom [°] |
Mean motion [rev/day] |
Abs. mag |
| Date fetched |
Epoch osculation |
Inc. [°] |
Ecc. | RA asc node [hr] |
Arg Peri. [°] |
Mean anom [°] |
Mean motion [rev/day] |
Abs. mag |
| 2026 May 05 17:57 | 2026 May 03 10:52:11 | 74.1249 | 0.02575 | 8.4745 | 127.4505 | 235.0356 | 13.97297 | – |
| 2026 May 04 17:57 | 2026 Apr 30 00:23:27 | 74.1247 | 0.02577 | 8.8675 | 134.2215 | 235.0356 | 13.97297 | – |
| 2026 May 03 17:57 | 2026 Apr 30 00:23:27 | 74.1247 | 0.02577 | 8.8675 | 134.2215 | 235.0356 | 13.97297 | – |
| 2026 May 02 17:57 | 2026 Apr 30 00:23:27 | 74.1247 | 0.02577 | 8.8675 | 134.2215 | 235.0356 | 13.97297 | – |
| 2026 May 01 17:56 | 2026 Apr 30 00:23:27 | 74.1247 | 0.02577 | 8.8675 | 134.2215 | 235.0356 | 13.97297 | – |
| 2026 Apr 30 17:56 | 2026 Apr 30 00:23:27 | 74.1247 | 0.02577 | 8.8675 | 134.2215 | 235.0356 | 13.97297 | – |
| 2026 Apr 29 17:57 | 2026 Apr 24 12:04:39 | 74.1256 | 0.02582 | 9.4978 | 145.0362 | 235.0356 | 13.97297 | – |
| 2026 Apr 28 17:56 | 2026 Apr 24 12:04:39 | 74.1256 | 0.02582 | 9.4978 | 145.0362 | 235.0356 | 13.97297 | – |
| 2026 Apr 27 17:58 | 2026 Apr 24 12:04:39 | 74.1256 | 0.02582 | 9.4978 | 145.0362 | 235.0356 | 13.97297 | – |
| 2026 Apr 26 17:58 | 2026 Apr 24 12:04:39 | 74.1256 | 0.02582 | 9.4978 | 145.0362 | 235.0356 | 13.97297 | – |
| 2026 Apr 25 17:58 | 2026 Apr 24 12:04:39 | 74.1256 | 0.02582 | 9.4978 | 145.0362 | 235.0356 | 13.97297 | – |
| 2026 Apr 24 17:59 | 2026 Apr 24 12:04:39 | 74.1256 | 0.02582 | 9.4978 | 145.0362 | 235.0356 | 13.97297 | – |
| 2026 Apr 23 17:57 | 2026 Apr 17 13:23:32 | 74.1265 | 0.02590 | 10.2918 | 158.5145 | 235.0356 | 13.97297 | – |
| 2026 Apr 22 17:57 | 2026 Apr 17 13:23:32 | 74.1265 | 0.02590 | 10.2918 | 158.5145 | 235.0356 | 13.97297 | – |
| 2026 Apr 21 17:57 | 2026 Apr 17 13:23:32 | 74.1265 | 0.02590 | 10.2918 | 158.5145 | 235.0356 | 13.97297 | – |
| 2026 Apr 20 17:57 | 2026 Apr 17 13:23:32 | 74.1265 | 0.02590 | 10.2918 | 158.5145 | 235.0356 | 13.97297 | – |
| 2026 Apr 19 17:58 | 2026 Apr 17 13:23:32 | 74.1265 | 0.02590 | 10.2918 | 158.5145 | 235.0356 | 13.97297 | – |
| 2026 Apr 18 17:56 | 2026 Apr 11 14:45:41 | 74.1261 | 0.02597 | 10.9712 | 169.9338 | 235.0356 | 13.97297 | – |
| 2026 Apr 16 17:57 | 2026 Apr 11 14:45:41 | 74.1261 | 0.02597 | 10.9712 | 169.9338 | 235.0356 | 13.97297 | – |
| 2026 Apr 14 17:57 | 2026 Apr 11 14:45:41 | 74.1261 | 0.02597 | 10.9712 | 169.9338 | 235.0356 | 13.97297 | – |
| 2026 Apr 13 17:57 | 2026 Apr 11 14:45:41 | 74.1261 | 0.02597 | 10.9712 | 169.9338 | 235.0356 | 13.97297 | – |
| 2026 Apr 12 17:57 | 2026 Apr 08 14:35:08 | 74.1261 | 0.02600 | 11.3149 | 175.7711 | 235.0356 | 13.97297 | – |
| 2026 Apr 11 17:57 | 2026 Apr 08 14:35:08 | 74.1261 | 0.02600 | 11.3149 | 175.7711 | 235.0356 | 13.97297 | – |
| 2026 Apr 10 17:58 | 2026 Apr 08 14:35:08 | 74.1261 | 0.02600 | 11.3149 | 175.7711 | 235.0356 | 13.97297 | – |
| 2026 Apr 09 18:01 | 2026 Apr 08 14:35:08 | 74.1261 | 0.02600 | 11.3149 | 175.7711 | 235.0356 | 13.97297 | – |
| 2026 Apr 08 17:57 | 2026 Apr 08 14:35:08 | 74.1261 | 0.02600 | 11.3149 | 175.7711 | 235.0356 | 13.97297 | – |